createdAt,value
2022-10-22T12:04:19.807Z,21.70
2022-10-22T12:08:26.340Z,19.80
2022-10-22T12:12:25.218Z,21.00
2022-10-22T12:16:37.663Z,20.00
2022-10-22T12:20:53.466Z,19.90
2022-10-22T12:25:35.442Z,18.90
2022-10-22T12:29:39.446Z,20.40
2022-10-22T12:33:59.211Z,18.50
2022-10-22T12:38:04.302Z,18.00
2022-10-22T12:42:13.442Z,18.50
2022-10-22T12:45:57.356Z,17.10
2022-10-22T12:49:56.735Z,17.10
2022-10-22T12:54:06.983Z,18.30
2022-10-22T12:58:42.332Z,19.00
2022-10-22T13:02:43.568Z,17.00
2022-10-22T13:06:49.016Z,17.20
2022-10-22T13:11:09.616Z,17.50
2022-10-22T13:15:32.398Z,18.60
2022-10-22T13:18:47.134Z,17.90
2022-10-22T13:23:04.215Z,17.70
2022-10-22T13:27:03.204Z,17.00
2022-10-22T13:31:19.695Z,17.80
2022-10-22T13:35:33.679Z,17.50
2022-10-22T13:39:46.572Z,17.30
2022-10-22T13:43:50.076Z,16.20
2022-10-22T13:47:52.527Z,17.90
2022-10-22T13:51:51.995Z,18.10
2022-10-22T13:55:51.295Z,18.00
2022-10-22T14:00:04.122Z,19.60
2022-10-22T14:04:14.062Z,16.10
2022-10-22T14:08:16.733Z,16.70
2022-10-22T14:12:17.725Z,17.90
2022-10-22T14:16:32.522Z,18.90
2022-10-22T14:20:38.352Z,17.50
2022-10-22T14:24:12.970Z,18.50
2022-10-22T14:28:26.135Z,16.70
2022-10-22T14:32:24.451Z,18.40
2022-10-22T14:36:26.662Z,19.00
2022-10-22T14:40:24.965Z,18.40
2022-10-22T14:44:24.655Z,18.20
2022-10-22T14:48:24.306Z,17.30
2022-10-22T14:52:22.322Z,18.80
2022-10-22T14:56:23.250Z,17.60
2022-10-22T15:00:22.559Z,18.20
2022-10-22T15:04:21.225Z,19.70
2022-10-22T15:08:21.069Z,20.60
2022-10-22T15:12:33.401Z,19.50
2022-10-22T15:16:45.688Z,20.00
2022-10-22T15:20:44.019Z,17.70
2022-10-22T15:24:56.364Z,20.30
2022-10-22T15:28:55.233Z,19.70
2022-10-22T15:33:07.174Z,19.20
2022-10-22T15:37:19.122Z,20.10
2022-10-22T15:41:17.304Z,21.90
2022-10-22T15:45:15.944Z,20.30
2022-10-22T15:49:14.983Z,21.80
2022-10-22T15:53:13.162Z,20.50
2022-10-22T15:57:11.340Z,21.90
2022-10-22T16:01:23.836Z,21.00
2022-10-22T16:05:22.352Z,21.40
2022-10-22T16:09:34.471Z,21.30
2022-10-22T16:13:32.934Z,22.00
2022-10-22T16:17:31.413Z,21.90
2022-10-22T16:21:29.951Z,21.00
2022-10-22T16:25:28.511Z,21.40
2022-10-22T16:29:40.895Z,22.30
2022-10-22T16:33:43.126Z,23.10
2022-10-22T16:37:44.820Z,23.40
2022-10-22T16:41:43.238Z,23.00
2022-10-22T16:45:48.131Z,26.00
2022-10-22T16:49:46.370Z,24.10
2022-10-22T16:53:44.748Z,23.60
2022-10-22T16:57:43.617Z,22.40
2022-10-22T17:05:58.570Z,22.40
2022-10-22T17:09:56.918Z,21.50
2022-10-22T17:13:55.173Z,21.70
2022-10-22T17:17:54.585Z,20.60
2022-10-22T17:21:53.827Z,22.40
2022-10-22T17:25:59.853Z,23.00
2022-10-22T17:29:58.404Z,21.80
2022-10-22T17:34:16.160Z,21.60
2022-10-22T17:38:28.513Z,20.30
2022-10-22T17:42:26.681Z,22.80
2022-10-22T17:46:28.705Z,21.60
2022-10-22T17:50:02.503Z,21.40
2022-10-22T17:54:02.477Z,19.70
2022-10-22T17:58:16.981Z,20.90
2022-10-22T18:02:17.301Z,20.70
2022-10-22T18:06:16.431Z,21.30
2022-10-22T18:10:15.025Z,21.10
2022-10-22T18:14:13.654Z,16.80
2022-10-22T18:18:12.515Z,16.50
2022-10-22T18:22:11.266Z,16.00
2022-10-22T18:26:10.032Z,15.60
2022-10-22T18:30:08.858Z,15.60
2022-10-22T18:34:23.777Z,15.50
2022-10-22T18:38:38.412Z,13.90
2022-10-22T18:42:39.054Z,13.30
2022-10-22T18:46:52.457Z,13.10
2022-10-22T18:51:02.006Z,13.60
2022-10-22T18:55:14.499Z,12.60
2022-10-22T18:59:27.300Z,13.20
2022-10-22T19:03:41.384Z,13.90
2022-10-22T19:07:41.359Z,14.20
2022-10-22T19:11:39.925Z,13.70
2022-10-22T19:15:55.194Z,13.50
2022-10-22T19:19:53.434Z,12.50
2022-10-22T19:23:55.739Z,13.10
2022-10-22T19:27:53.741Z,15.20
2022-10-22T19:31:51.950Z,16.30
2022-10-22T19:36:13.126Z,16.00
2022-10-22T19:40:27.122Z,16.10
2022-10-22T19:44:39.151Z,15.30
2022-10-22T19:48:38.968Z,13.60
2022-10-22T19:52:37.324Z,13.60
2022-10-22T19:56:37.872Z,13.50
2022-10-22T20:00:50.174Z,14.10
2022-10-22T20:04:49.893Z,14.70
2022-10-22T20:09:02.676Z,14.60
2022-10-22T20:13:01.313Z,16.40
2022-10-22T20:17:00.225Z,18.70
2022-10-22T20:20:58.569Z,17.50
2022-10-22T20:24:57.099Z,18.00
2022-10-22T20:29:11.828Z,19.40
2022-10-22T20:33:10.133Z,19.50
2022-10-22T20:37:08.806Z,20.10
2022-10-22T20:41:22.113Z,19.40
2022-10-22T20:45:20.912Z,19.40
2022-10-22T20:49:35.774Z,18.70
2022-10-22T20:53:37.405Z,18.80
2022-10-22T20:57:37.696Z,18.80
2022-10-22T21:01:39.785Z,18.30
2022-10-22T21:05:38.065Z,18.30
2022-10-22T21:09:37.352Z,19.00
2022-10-22T21:13:36.178Z,19.90
2022-10-22T21:17:34.810Z,19.50
2022-10-22T21:21:35.642Z,21.00
2022-10-22T21:25:11.117Z,17.40
2022-10-22T21:29:11.522Z,17.40
2022-10-22T21:33:09.950Z,16.60
2022-10-22T21:37:08.576Z,18.90
2022-10-22T21:41:09.919Z,16.40
2022-10-22T21:45:13.129Z,16.50
2022-10-22T21:49:15.709Z,16.60
2022-10-22T21:53:14.250Z,15.40
2022-10-22T21:57:12.637Z,15.90
2022-10-22T22:01:12.141Z,17.00
2022-10-22T22:05:10.671Z,14.70
2022-10-22T22:09:09.359Z,16.00
2022-10-22T22:13:07.847Z,15.10
2022-10-22T22:17:06.445Z,13.00
2022-10-22T22:21:08.490Z,13.60
2022-10-22T22:25:07.110Z,15.40
2022-10-22T22:29:05.711Z,12.60
2022-10-22T22:33:04.577Z,14.00
2022-10-22T22:37:03.437Z,11.50
2022-10-22T22:41:02.183Z,13.50
2022-10-22T22:45:00.731Z,12.50
2022-10-22T22:48:59.415Z,13.10
2022-10-22T22:52:58.311Z,10.80
2022-10-22T22:56:56.758Z,11.00
2022-10-22T23:00:55.491Z,10.30
2022-10-22T23:04:53.839Z,10.90
2022-10-22T23:08:53.936Z,6.60
2022-10-22T23:12:52.577Z,8.00
2022-10-22T23:16:52.696Z,7.70
2022-10-22T23:20:50.659Z,8.30
2022-10-22T23:24:48.616Z,7.60
2022-10-22T23:28:46.917Z,8.50
2022-10-22T23:32:45.318Z,7.20
2022-10-22T23:36:44.115Z,7.30
2022-10-22T23:40:42.199Z,7.40
2022-10-22T23:44:40.928Z,8.30
2022-10-22T23:48:40.286Z,8.30
2022-10-22T23:52:38.967Z,7.70
